Terminal Aerodrome Forecast
Issued by NWS

Home | Current Version | Previous Version | Text Only | Print | Product List | Glossary On
Versions: 1 2 3 4 5 6 7 8 9 10 11 12 13 14 15 16 17 18 19 20
000
FTPA31 PHFO 241138
TAFHTO
TAF
PHTO 241138Z 2412/2512 VRB06KT 3SM -SHRA BR SCT015 BKN025
     FM242200 16007KT 6SM -SHRA BR SCT015 BKN025
     FM250500 24006KT 6SM -SHRA BR SCT015 BKN025=

USA.gov is the U.S. government's official web portal to all federal, state and local government web resources and services.